createdAt,value
2022-12-04T00:01:29.274Z,93.52
2022-12-04T00:07:31.254Z,93.90
2022-12-04T00:13:37.562Z,93.64
2022-12-04T00:19:39.453Z,93.44
2022-12-04T00:25:42.021Z,92.91
2022-12-04T00:31:43.997Z,93.48
2022-12-04T00:37:45.932Z,92.99
2022-12-04T00:43:48.002Z,92.21
2022-12-04T00:49:53.658Z,91.77
2022-12-04T00:56:00.377Z,92.52
2022-12-04T01:02:14.189Z,91.79
2022-12-04T01:08:16.224Z,92.84
2022-12-04T01:14:36.008Z,93.32
2022-12-04T01:20:38.025Z,93.46
2022-12-04T01:26:39.960Z,93.56
2022-12-04T01:32:41.903Z,93.29
2022-12-04T01:38:44.364Z,93.47
2022-12-04T01:45:37.840Z,92.15
2022-12-04T01:51:48.196Z,92.82
2022-12-04T01:57:52.982Z,93.36
2022-12-04T02:04:00.543Z,93.67
2022-12-04T02:10:06.441Z,93.23
2022-12-04T02:16:33.750Z,93.18
2022-12-04T02:23:38.689Z,92.74
2022-12-04T02:30:08.172Z,92.81
2022-12-04T02:36:23.373Z,93.00
2022-12-04T02:42:51.525Z,93.54
2022-12-04T02:48:58.274Z,94.19
2022-12-04T02:55:14.274Z,93.33
2022-12-04T03:01:23.991Z,93.77
2022-12-04T03:07:38.769Z,93.19
2022-12-04T03:13:50.840Z,93.28
2022-12-04T03:19:58.881Z,93.08
2022-12-04T03:26:12.519Z,93.29
2022-12-04T03:32:43.266Z,93.35
2022-12-04T03:39:32.241Z,93.66
2022-12-04T03:46:04.183Z,93.25
2022-12-04T03:52:41.765Z,93.64
2022-12-04T03:58:54.729Z,93.67
2022-12-04T04:04:59.094Z,94.29
2022-12-04T04:11:53.148Z,93.97
2022-12-04T04:18:15.375Z,94.52
2022-12-04T04:24:43.425Z,94.38
2022-12-04T04:30:48.328Z,94.44
2022-12-04T04:36:56.089Z,94.47
2022-12-04T04:49:37.008Z,94.85
2022-12-04T04:55:39.660Z,95.21
2022-12-04T05:01:45.758Z,94.88
2022-12-04T05:07:47.771Z,94.55
2022-12-04T05:13:49.774Z,94.96
2022-12-04T05:19:58.243Z,95.26
2022-12-04T05:26:03.125Z,94.93
2022-12-04T05:32:11.186Z,94.58
2022-12-04T05:38:13.158Z,95.05
2022-12-04T05:44:15.461Z,95.89
2022-12-04T05:50:17.458Z,95.04
2022-12-04T05:56:19.380Z,94.96
2022-12-04T06:02:24.519Z,95.70
2022-12-04T06:08:26.492Z,95.29
2022-12-04T06:14:36.224Z,95.54
2022-12-04T06:20:41.224Z,95.71
2022-12-04T06:33:22.215Z,96.23
2022-12-04T06:39:24.139Z,95.72
2022-12-04T06:45:29.918Z,95.37
2022-12-04T06:51:39.961Z,95.95
2022-12-04T06:57:41.890Z,96.39
2022-12-04T07:03:49.506Z,96.48
2022-12-04T07:09:56.365Z,96.89
2022-12-04T07:16:02.194Z,97.36
2022-12-04T07:22:04.247Z,97.07
2022-12-04T07:28:06.336Z,96.61
2022-12-04T07:34:08.261Z,96.90
2022-12-04T07:40:10.971Z,96.79
2022-12-04T07:46:21.707Z,96.47
2022-12-04T07:52:23.698Z,96.52
2022-12-04T07:58:26.010Z,96.74
2022-12-04T08:04:28.122Z,95.35
2022-12-04T08:10:30.175Z,95.56
2022-12-04T08:16:34.117Z,96.22
2022-12-04T08:22:49.430Z,96.66
2022-12-04T08:28:54.630Z,95.85
2022-12-04T08:34:56.546Z,95.44
2022-12-04T08:41:08.429Z,96.03
2022-12-04T08:47:10.351Z,95.01
2022-12-04T08:53:18.378Z,95.40
2022-12-04T08:59:20.290Z,94.72
2022-12-04T09:05:22.483Z,94.99
2022-12-04T09:11:28.223Z,95.31
2022-12-04T09:17:35.291Z,95.18
2022-12-04T09:23:39.094Z,95.59
2022-12-04T09:29:40.999Z,94.25
2022-12-04T09:35:42.889Z,94.79
2022-12-04T09:42:20.564Z,94.89
2022-12-04T09:48:36.018Z,93.27
2022-12-04T09:54:44.829Z,94.48
2022-12-04T10:00:52.838Z,93.59
2022-12-04T10:07:18.724Z,93.99
2022-12-04T10:14:17.059Z,93.62
2022-12-04T10:20:25.086Z,93.49
2022-12-04T10:26:39.430Z,92.81
2022-12-04T10:39:42.211Z,90.79
2022-12-04T10:45:46.893Z,91.44
2022-12-04T10:51:49.260Z,90.95
2022-12-04T10:57:51.807Z,90.57
2022-12-04T11:04:08.263Z,91.23
2022-12-04T11:10:43.014Z,91.23
2022-12-04T11:17:01.394Z,91.05
2022-12-04T11:23:04.783Z,90.95
2022-12-04T11:29:21.493Z,91.48
2022-12-04T11:35:36.903Z,90.37
2022-12-04T11:41:39.318Z,91.07
2022-12-04T11:47:41.339Z,91.22
2022-12-04T11:53:48.936Z,91.06
2022-12-04T11:59:59.425Z,91.56
2022-12-04T12:06:53.811Z,91.78
2022-12-04T12:13:24.180Z,91.67
2022-12-04T12:20:01.160Z,91.78
2022-12-04T12:26:18.393Z,91.93
2022-12-04T12:32:49.068Z,92.06
2022-12-04T12:39:11.207Z,91.95
2022-12-04T12:45:44.186Z,91.00
2022-12-04T12:52:16.121Z,91.70
2022-12-04T12:58:47.322Z,92.83
2022-12-04T13:04:56.582Z,92.65
2022-12-04T13:11:07.474Z,92.67
2022-12-04T13:17:38.125Z,91.85
2022-12-04T13:24:13.539Z,93.07
2022-12-04T13:31:09.568Z,93.16
2022-12-04T13:37:50.229Z,93.91
2022-12-04T13:44:07.009Z,94.65
2022-12-04T13:50:29.912Z,95.10
2022-12-04T13:56:33.854Z,94.91
2022-12-04T14:02:37.832Z,95.50
2022-12-04T14:08:46.231Z,95.56
2022-12-04T14:15:08.292Z,96.16
2022-12-04T14:21:24.999Z,95.94
2022-12-04T14:27:42.371Z,96.44
2022-12-04T14:33:51.471Z,95.13
2022-12-04T14:39:56.479Z,96.24
2022-12-04T14:46:25.430Z,95.28
2022-12-04T14:52:50.043Z,95.89
2022-12-04T14:58:52.347Z,96.35
2022-12-04T15:04:55.041Z,96.33
2022-12-04T15:11:35.236Z,95.71
2022-12-04T15:17:37.168Z,96.30
2022-12-04T15:23:41.610Z,95.17
2022-12-04T15:29:48.302Z,95.67
2022-12-04T15:36:12.500Z,95.75
2022-12-04T15:42:26.614Z,96.34
2022-12-04T15:48:31.840Z,96.89
2022-12-04T15:54:38.280Z,96.93
2022-12-04T16:00:42.857Z,96.68
2022-12-04T16:06:50.879Z,96.72
2022-12-04T16:13:05.838Z,96.84
2022-12-04T16:19:42.038Z,96.70
2022-12-04T16:25:51.048Z,97.15
2022-12-04T16:32:02.898Z,96.90
2022-12-04T16:38:16.477Z,96.66
2022-12-04T16:44:28.590Z,96.56
2022-12-04T16:50:36.686Z,96.41
2022-12-04T16:56:38.676Z,96.14
2022-12-04T17:02:41.265Z,95.88
2022-12-04T17:08:43.642Z,96.27
2022-12-04T17:14:45.759Z,96.76
2022-12-04T17:20:49.871Z,96.50
2022-12-04T17:26:59.479Z,96.52
2022-12-04T17:33:01.351Z,96.46
2022-12-04T17:39:05.807Z,96.04
2022-12-04T17:45:10.668Z,96.04
2022-12-04T17:51:20.047Z,96.57
2022-12-04T17:57:25.190Z,95.76
2022-12-04T18:03:27.142Z,96.45
2022-12-04T18:09:29.276Z,96.62
2022-12-04T18:15:31.588Z,95.94
2022-12-04T18:21:38.248Z,96.33
2022-12-04T18:27:41.977Z,95.11
2022-12-04T18:33:48.367Z,95.32
2022-12-04T18:39:51.031Z,95.90
2022-12-04T18:46:07.723Z,96.15
2022-12-04T18:52:13.009Z,96.53
2022-12-04T18:58:28.775Z,96.86
2022-12-04T19:04:33.061Z,97.04
2022-12-04T19:10:35.098Z,97.12
2022-12-04T19:16:37.180Z,97.49
2022-12-04T19:22:49.109Z,98.06
2022-12-04T19:29:00.993Z,98.58
2022-12-04T19:35:03.017Z,98.42
2022-12-04T19:41:19.756Z,98.58
2022-12-04T19:47:32.407Z,97.99
2022-12-04T19:53:40.642Z,98.18
2022-12-04T19:59:46.640Z,98.33
2022-12-04T20:05:56.110Z,98.83
2022-12-04T20:11:58.227Z,98.84
2022-12-04T20:18:04.232Z,99.42
2022-12-04T20:30:28.789Z,98.44
2022-12-04T20:36:35.753Z,98.51
2022-12-04T20:42:49.993Z,99.86
2022-12-04T20:48:53.733Z,99.49
2022-12-04T20:54:58.600Z,98.99
2022-12-04T21:01:26.546Z,99.10
2022-12-04T21:07:31.737Z,98.47
2022-12-04T21:13:52.331Z,99.35
2022-12-04T21:20:00.375Z,99.67
2022-12-04T21:26:06.438Z,99.50
2022-12-04T21:32:11.092Z,98.56
2022-12-04T21:38:13.032Z,98.77
2022-12-04T21:44:22.601Z,98.59
2022-12-04T21:50:24.564Z,99.47
2022-12-04T21:56:27.125Z,98.89
2022-12-04T22:02:30.884Z,98.89
2022-12-04T22:08:37.134Z,99.08
2022-12-04T22:14:39.010Z,98.80
2022-12-04T22:20:42.554Z,98.99
2022-12-04T22:26:44.504Z,98.44
2022-12-04T22:32:46.490Z,98.88
2022-12-04T22:39:11.067Z,98.68
2022-12-04T22:45:16.199Z,98.36
2022-12-04T22:51:24.203Z,98.72
2022-12-04T22:57:26.318Z,99.06
2022-12-04T23:03:28.285Z,98.67
2022-12-04T23:09:47.540Z,98.15
2022-12-04T23:15:50.130Z,98.54
2022-12-04T23:21:56.955Z,98.34
2022-12-04T23:28:00.207Z,98.13
2022-12-04T23:40:19.889Z,98.14
2022-12-04T23:52:47.987Z,97.85
2022-12-04T23:58:53.329Z,95.97
